createdAt,value
2019-01-25T00:01:26.771Z,23.6
2019-01-25T00:11:28.798Z,22.4
2019-01-25T00:21:29.389Z,27.6
2019-01-25T00:31:28.549Z,28.4
2019-01-25T00:41:26.272Z,24.4
2019-01-25T00:51:28.057Z,27.9
2019-01-25T01:01:27.731Z,26.5
2019-01-25T01:11:26.296Z,29.6
2019-01-25T01:21:29.405Z,30.3
2019-01-25T01:31:32.510Z,21.6
2019-01-25T01:41:33.046Z,25.5
2019-01-25T01:51:28.401Z,23.1
2019-01-25T02:01:32.698Z,24.8
2019-01-25T02:11:27.100Z,29.8
2019-01-25T02:21:26.614Z,25.1
2019-01-25T02:31:28.419Z,29.4
2019-01-25T02:41:27.158Z,20.9
2019-01-25T02:51:28.770Z,24.9
2019-01-25T03:01:26.488Z,26.2
2019-01-25T03:11:27.520Z,25.9
2019-01-25T03:21:37.990Z,29.0
2019-01-25T03:31:41.389Z,26.1
2019-01-25T03:41:32.447Z,25.4
2019-01-25T03:51:27.773Z,23.4
2019-01-25T04:01:35.478Z,20.4
2019-01-25T04:11:32.671Z,25.5
2019-01-25T04:21:28.087Z,31.1
2019-01-25T04:31:30.039Z,26.0
2019-01-25T04:41:26.671Z,23.2
2019-01-25T04:51:34.681Z,26.0
2019-01-25T05:01:26.761Z,25.9
2019-01-25T05:11:29.520Z,25.8
2019-01-25T05:21:30.995Z,24.9
2019-01-25T05:31:28.424Z,26.5
2019-01-25T05:41:29.464Z,26.6
2019-01-25T05:51:34.344Z,30.0
2019-01-25T06:01:29.593Z,24.4
2019-01-25T06:11:35.213Z,28.1
2019-01-25T06:21:33.616Z,31.1
2019-01-25T06:31:34.093Z,28.1
2019-01-25T06:41:29.626Z,37.5
2019-01-25T06:51:49.487Z,33.3
2019-01-25T07:01:32.712Z,27.4
2019-01-25T07:11:27.021Z,37.6
2019-01-25T07:21:27.012Z,30.2
2019-01-25T07:31:28.714Z,32.8
2019-01-25T07:41:32.876Z,26.7
2019-01-25T07:51:28.511Z,29.8
2019-01-25T08:01:35.592Z,32.5
2019-01-25T08:11:27.914Z,47.5
2019-01-25T08:21:31.585Z,42.4
2019-01-25T08:31:28.046Z,29.5
2019-01-25T08:41:29.239Z,34.7
2019-01-25T08:51:34.109Z,37.9
2019-01-25T09:01:35.809Z,39.7
2019-01-25T09:11:32.915Z,34.3
2019-01-25T09:21:27.453Z,41.2
2019-01-25T09:31:28.310Z,43.3
2019-01-25T09:41:27.117Z,43.6
2019-01-25T09:51:34.160Z,51.5
2019-01-25T10:01:28.505Z,53.5
2019-01-25T10:11:39.301Z,39.7
2019-01-25T10:21:26.418Z,44.0
2019-01-25T10:31:27.313Z,22.5
2019-01-25T10:41:28.299Z,34.3
2019-01-25T10:51:28.472Z,43.0
2019-01-25T11:01:32.631Z,40.1
2019-01-25T11:11:39.281Z,47.3
2019-01-25T11:21:27.110Z,54.1
2019-01-25T11:31:30.216Z,47.8
2019-01-25T11:41:28.717Z,57.7
2019-01-25T11:51:28.665Z,36.5
2019-01-25T12:01:27.870Z,48.7
2019-01-25T12:11:33.653Z,25.0
2019-01-25T12:21:27.300Z,50.0
2019-01-25T12:31:28.129Z,52.7
2019-01-25T12:41:26.843Z,53.5
2019-01-25T12:51:27.861Z,65.3
2019-01-25T13:01:28.622Z,56.3
2019-01-25T13:11:27.056Z,65.7
2019-01-25T13:21:33.746Z,74.1
2019-01-25T13:31:26.722Z,57.5
2019-01-25T13:41:28.207Z,60.7
2019-01-25T13:51:27.642Z,56.0
2019-01-25T14:01:34.332Z,58.9
2019-01-25T14:11:26.991Z,58.1
2019-01-25T14:21:27.938Z,63.4
2019-01-25T14:31:34.353Z,52.6
2019-01-25T14:41:26.906Z,54.5
2019-01-25T14:51:27.779Z,57.2
2019-01-25T15:01:32.973Z,52.3
2019-01-25T15:11:27.022Z,58.1
2019-01-25T15:21:26.984Z,55.4
2019-01-25T15:31:27.737Z,55.1
2019-01-25T15:41:26.602Z,67.1
2019-01-25T15:51:26.805Z,64.6
2019-01-25T16:01:26.907Z,73.0
2019-01-25T16:11:27.153Z,75.8
2019-01-25T16:21:27.798Z,76.2
2019-01-25T16:31:26.556Z,72.3
2019-01-25T16:41:27.318Z,75.1
2019-01-25T16:51:27.135Z,72.9
2019-01-25T17:01:27.595Z,91.2
2019-01-25T17:11:26.219Z,86.0
2019-01-25T17:21:27.454Z,88.4
2019-01-25T17:31:27.259Z,89.7
2019-01-25T17:41:27.497Z,93.7
2019-01-25T17:51:28.787Z,96.0
2019-01-25T18:01:27.098Z,90.3
2019-01-25T18:11:27.982Z,80.9
2019-01-25T18:21:27.286Z,83.6
2019-01-25T18:31:27.631Z,82.5
2019-01-25T18:41:28.208Z,73.2
2019-01-25T18:51:28.843Z,64.0
2019-01-25T19:01:33.638Z,68.1
2019-01-25T19:11:32.879Z,78.7
2019-01-25T19:21:26.895Z,71.5
2019-01-25T19:31:33.482Z,65.0
2019-01-25T19:41:27.859Z,68.6
2019-01-25T19:51:27.155Z,69.5
2019-01-25T20:01:27.828Z,64.8
2019-01-25T20:11:27.002Z,56.9
2019-01-25T20:21:27.513Z,49.8
2019-01-25T20:31:30.096Z,64.3
2019-01-25T20:41:27.060Z,65.0
2019-01-25T20:51:27.242Z,53.7
2019-01-25T21:01:32.801Z,66.2
2019-01-25T21:11:26.810Z,57.4
2019-01-25T21:21:29.753Z,56.6
2019-01-25T21:31:28.883Z,59.7
2019-01-25T21:41:28.563Z,54.5
2019-01-25T21:51:27.429Z,55.5
2019-01-25T22:01:26.728Z,42.2
2019-01-25T22:11:27.471Z,64.2
2019-01-25T22:21:26.856Z,67.1
2019-01-25T22:31:26.656Z,70.2
2019-01-25T22:41:28.686Z,64.4
2019-01-25T22:51:27.273Z,78.6
2019-01-25T23:01:28.213Z,76.9
2019-01-25T23:11:33.851Z,96.2
2019-01-25T23:21:37.673Z,87.2
2019-01-25T23:31:28.110Z,88.4
2019-01-25T23:41:27.240Z,91.7
2019-01-25T23:51:26.802Z,99.3
